Fu Xing Hai — VRQE3 — position and weather

sailwx.info

Track history (hours):
 
Tides and Currents Weather Stations Pressure Air Temp Water Temp Dewpoint Dewpoint Depression Visibility Wind Speed Wind Dir Waves Ship Positions

Fu Xing Hai

Last reported at 2017-Nov-20 00:30 UTC. Time now 2017-Dec-16 16:46 UTC.
Position N 27°54' W 013°43'.
Warning: this ship's position is 26 days out of date.

Length 177 m; draft 9.7 m.

Type: Cargo ship. MMSI: 477252700.

Date/timePositionNaut miles runAvg speedWind from/ knotsBaromVisibWave heightAir tempDewpointWater temp
2017-Nov-20 00:30N 27°54' W 013°43'612.9
2017-Nov-20 00:00N 27°59' W 013°38'612.6
2017-Nov-19 23:30N 28°03' W 013°33'612.6
2017-Nov-19 23:00N 28°08' W 013°29'612.7
2017-Nov-19 22:30N 28°14' W 013°25'1112.7
2017-Nov-19 21:36N 28°23' W 013°18'112.8
2017-Nov-19 21:30N 28°24' W 013°17'4312.9
2017-Nov-19 18:09N 29°00' W 012°50'55912.7
2017-Nov-17 22:08N 35°59' W 005°30'211.8
2017-Nov-17 22:00N 35°60' W 005°29'510.6
2017-Nov-17 21:30N 36°02' W 005°23'4 7.9
2017-Nov-17 21:00N 36°06' W 005°22'0 0.1
2017-Nov-17 18:55N 36°06' W 005°22'3 0.5
2017-Nov-17 11:41N 36°04' W 005°19'0 2.2
2017-Nov-17 11:30N 36°04' W 005°18'3 6.9
2017-Nov-17 11:00N 36°05' W 005°14'1 0.6
2017-Nov-17 08:31N 36°06' W 005°13'0 4.6
2017-Nov-17 08:27N 36°05' W 005°13'3 0.9
2017-Nov-17 05:41N 36°06' W 005°10'0 0.8
2017-Nov-17 05:29N 36°06' W 005°10'0 0.4
2017-Nov-17 05:00N 36°06' W 005°10'2 2.6
2017-Nov-17 04:13N 36°04' W 005°10'1 4.6
2017-Nov-17 03:58N 36°03' W 005°10'  
2017-Nov-11 22:20N 36°02' W 005°08'413.3
2017-Nov-11 22:00N 36°01' W 005°14'713.9
2017-Nov-11 21:30N 35°59' W 005°22'713.0
2017-Nov-11 21:00N 35°57' W 005°30'  
Track history (hours):
 
Tides and Currents Weather Stations Pressure Air Temp Water Temp Dewpoint Dewpoint Depression Visibility Wind Speed Wind Dir Waves Ship Positions

Fu Xing Hai

Last reported at 2017-Nov-20 00:30 UTC. Time now 2017-Dec-16 16:46 UTC.
Position N 27°54' W 013°43'.
Warning: this ship's position is 26 days out of date.

Length 177 m; draft 9.7 m.

Type: Cargo ship. MMSI: 477252700.

Date/timePositionNaut miles runAvg speedWind from/ knotsBaromVisibWave heightAir tempDewpointWater temp
2017-Nov-20 00:30N 27°54' W 013°43'612.9
2017-Nov-20 00:00N 27°59' W 013°38'612.6
2017-Nov-19 23:30N 28°03' W 013°33'612.6
2017-Nov-19 23:00N 28°08' W 013°29'612.7
2017-Nov-19 22:30N 28°14' W 013°25'1112.7
2017-Nov-19 21:36N 28°23' W 013°18'112.8
2017-Nov-19 21:30N 28°24' W 013°17'4312.9
2017-Nov-19 18:09N 29°00' W 012°50'55912.7
2017-Nov-17 22:08N 35°59' W 005°30'211.8
2017-Nov-17 22:00N 35°60' W 005°29'510.6
2017-Nov-17 21:30N 36°02' W 005°23'4 7.9
2017-Nov-17 21:00N 36°06' W 005°22'0 0.1
2017-Nov-17 18:55N 36°06' W 005°22'3 0.5
2017-Nov-17 11:41N 36°04' W 005°19'0 2.2
2017-Nov-17 11:30N 36°04' W 005°18'3 6.9
2017-Nov-17 11:00N 36°05' W 005°14'1 0.6
2017-Nov-17 08:31N 36°06' W 005°13'0 4.6
2017-Nov-17 08:27N 36°05' W 005°13'3 0.9
2017-Nov-17 05:41N 36°06' W 005°10'0 0.8
2017-Nov-17 05:29N 36°06' W 005°10'0 0.4
2017-Nov-17 05:00N 36°06' W 005°10'2 2.6
2017-Nov-17 04:13N 36°04' W 005°10'1 4.6
2017-Nov-17 03:58N 36°03' W 005°10'  
2017-Nov-11 22:20N 36°02' W 005°08'413.3
2017-Nov-11 22:00N 36°01' W 005°14'713.9
2017-Nov-11 21:30N 35°59' W 005°22'713.0
2017-Nov-11 21:00N 35°57' W 005°30'  

Dump ship's entire track history